sensor_id;sensor_type;location;lat;lon;timestamp;P1;durP1;ratioP1;P2;durP2;ratioP2
21360;SDS011;10839;43.206;23.550;2023-05-07T00:01:59;6.18;;;4.47;;
21360;SDS011;10839;43.206;23.550;2023-05-07T00:04:25;5.45;;;4.13;;
21360;SDS011;10839;43.206;23.550;2023-05-07T00:06:51;6.97;;;4.43;;
21360;SDS011;10839;43.206;23.550;2023-05-07T00:09:17;5.70;;;4.25;;
21360;SDS011;10839;43.206;23.550;2023-05-07T00:11:42;11.13;;;4.20;;
21360;SDS011;10839;43.206;23.550;2023-05-07T00:14:08;5.45;;;3.97;;
21360;SDS011;10839;43.206;23.550;2023-05-07T00:16:34;7.25;;;4.22;;
21360;SDS011;10839;43.206;23.550;2023-05-07T00:19:00;7.53;;;4.70;;
21360;SDS011;10839;43.206;23.550;2023-05-07T00:21:26;7.30;;;4.13;;
21360;SDS011;10839;43.206;23.550;2023-05-07T00:23:52;5.28;;;3.97;;
21360;SDS011;10839;43.206;23.550;2023-05-07T00:26:19;6.32;;;4.25;;
21360;SDS011;10839;43.206;23.550;2023-05-07T00:28:47;8.73;;;4.43;;
21360;SDS011;10839;43.206;23.550;2023-05-07T00:31:13;7.80;;;4.93;;
21360;SDS011;10839;43.206;23.550;2023-05-07T00:33:38;6.90;;;4.20;;
21360;SDS011;10839;43.206;23.550;2023-05-07T00:36:04;8.48;;;4.47;;
21360;SDS011;10839;43.206;23.550;2023-05-07T00:38:30;7.28;;;4.35;;
21360;SDS011;10839;43.206;23.550;2023-05-07T00:40:56;6.82;;;4.32;;
21360;SDS011;10839;43.206;23.550;2023-05-07T00:43:22;7.55;;;4.30;;
21360;SDS011;10839;43.206;23.550;2023-05-07T00:45:48;4.47;;;4.05;;
21360;SDS011;10839;43.206;23.550;2023-05-07T00:48:14;8.25;;;4.38;;
21360;SDS011;10839;43.206;23.550;2023-05-07T00:50:40;7.60;;;4.32;;
21360;SDS011;10839;43.206;23.550;2023-05-07T00:53:06;8.10;;;4.70;;
21360;SDS011;10839;43.206;23.550;2023-05-07T00:55:32;8.30;;;4.20;;
21360;SDS011;10839;43.206;23.550;2023-05-07T00:57:58;5.68;;;4.05;;
21360;SDS011;10839;43.206;23.550;2023-05-07T01:00:24;6.95;;;4.13;;
21360;SDS011;10839;43.206;23.550;2023-05-07T01:02:50;6.75;;;3.85;;
21360;SDS011;10839;43.206;23.550;2023-05-07T01:05:17;10.98;;;4.45;;
21360;SDS011;10839;43.206;23.550;2023-05-07T01:07:45;8.68;;;4.78;;
21360;SDS011;10839;43.206;23.550;2023-05-07T01:10:12;6.68;;;4.80;;
21360;SDS011;10839;43.206;23.550;2023-05-07T01:12:40;11.35;;;5.45;;
21360;SDS011;10839;43.206;23.550;2023-05-07T01:15:08;7.05;;;4.90;;
21360;SDS011;10839;43.206;23.550;2023-05-07T01:17:35;8.98;;;4.50;;
21360;SDS011;10839;43.206;23.550;2023-05-07T01:20:06;8.20;;;5.25;;
21360;SDS011;10839;43.206;23.550;2023-05-07T01:22:33;5.60;;;4.00;;
21360;SDS011;10839;43.206;23.550;2023-05-07T01:25:02;12.32;;;5.60;;
21360;SDS011;10839;43.206;23.550;2023-05-07T01:27:31;7.30;;;5.75;;
21360;SDS011;10839;43.206;23.550;2023-05-07T01:29:59;7.90;;;5.53;;
21360;SDS011;10839;43.206;23.550;2023-05-07T01:32:32;7.55;;;5.25;;
21360;SDS011;10839;43.206;23.550;2023-05-07T01:35:04;9.60;;;6.18;;
21360;SDS011;10839;43.206;23.550;2023-05-07T01:37:32;9.52;;;6.10;;
21360;SDS011;10839;43.206;23.550;2023-05-07T01:39:59;10.25;;;6.32;;
21360;SDS011;10839;43.206;23.550;2023-05-07T01:42:27;7.75;;;6.38;;
21360;SDS011;10839;43.206;23.550;2023-05-07T01:44:55;8.57;;;6.03;;
21360;SDS011;10839;43.206;23.550;2023-05-07T01:47:21;10.40;;;6.43;;
21360;SDS011;10839;43.206;23.550;2023-05-07T01:49:47;9.23;;;6.47;;
21360;SDS011;10839;43.206;23.550;2023-05-07T01:52:13;11.40;;;7.32;;
21360;SDS011;10839;43.206;23.550;2023-05-07T01:54:39;10.50;;;7.88;;
21360;SDS011;10839;43.206;23.550;2023-05-07T01:57:06;11.93;;;7.35;;
21360;SDS011;10839;43.206;23.550;2023-05-07T01:59:32;11.50;;;7.72;;
21360;SDS011;10839;43.206;23.550;2023-05-07T02:02:00;10.38;;;7.28;;
21360;SDS011;10839;43.206;23.550;2023-05-07T02:04:27;9.40;;;6.90;;
21360;SDS011;10839;43.206;23.550;2023-05-07T02:06:53;11.55;;;6.95;;
21360;SDS011;10839;43.206;23.550;2023-05-07T02:09:19;11.80;;;6.75;;
21360;SDS011;10839;43.206;23.550;2023-05-07T02:11:48;9.68;;;7.00;;
21360;SDS011;10839;43.206;23.550;2023-05-07T02:14:14;10.75;;;7.10;;
21360;SDS011;10839;43.206;23.550;2023-05-07T02:16:41;10.75;;;6.65;;
21360;SDS011;10839;43.206;23.550;2023-05-07T02:19:08;9.18;;;6.78;;
21360;SDS011;10839;43.206;23.550;2023-05-07T02:21:35;12.95;;;8.38;;
21360;SDS011;10839;43.206;23.550;2023-05-07T02:24:00;12.00;;;8.35;;
21360;SDS011;10839;43.206;23.550;2023-05-07T02:26:26;12.50;;;7.90;;
21360;SDS011;10839;43.206;23.550;2023-05-07T02:28:52;14.43;;;8.18;;
21360;SDS011;10839;43.206;23.550;2023-05-07T02:31:19;15.35;;;8.95;;
21360;SDS011;10839;43.206;23.550;2023-05-07T02:33:45;14.32;;;8.68;;
21360;SDS011;10839;43.206;23.550;2023-05-07T02:36:12;15.60;;;8.52;;
21360;SDS011;10839;43.206;23.550;2023-05-07T02:38:50;10.65;;;7.78;;
21360;SDS011;10839;43.206;23.550;2023-05-07T02:41:16;14.52;;;8.15;;
21360;SDS011;10839;43.206;23.550;2023-05-07T02:43:42;14.00;;;8.40;;
21360;SDS011;10839;43.206;23.550;2023-05-07T02:46:08;11.75;;;8.43;;
21360;SDS011;10839;43.206;23.550;2023-05-07T02:48:38;11.82;;;8.30;;
21360;SDS011;10839;43.206;23.550;2023-05-07T02:51:04;11.05;;;7.85;;
21360;SDS011;10839;43.206;23.550;2023-05-07T02:53:33;11.18;;;7.63;;
21360;SDS011;10839;43.206;23.550;2023-05-07T02:55:59;11.80;;;7.90;;
21360;SDS011;10839;43.206;23.550;2023-05-07T02:58:26;11.32;;;8.23;;
21360;SDS011;10839;43.206;23.550;2023-05-07T03:00:52;12.90;;;7.82;;
21360;SDS011;10839;43.206;23.550;2023-05-07T03:03:34;10.50;;;7.05;;
21360;SDS011;10839;43.206;23.550;2023-05-07T03:06:00;17.25;;;7.88;;
21360;SDS011;10839;43.206;23.550;2023-05-07T03:08:27;11.55;;;7.57;;
21360;SDS011;10839;43.206;23.550;2023-05-07T03:10:52;12.20;;;8.10;;
21360;SDS011;10839;43.206;23.550;2023-05-07T03:13:19;9.52;;;7.38;;
21360;SDS011;10839;43.206;23.550;2023-05-07T03:15:45;12.55;;;8.05;;
21360;SDS011;10839;43.206;23.550;2023-05-07T03:18:11;15.48;;;8.05;;
21360;SDS011;10839;43.206;23.550;2023-05-07T03:20:37;12.02;;;7.60;;
21360;SDS011;10839;43.206;23.550;2023-05-07T03:23:03;12.95;;;8.00;;
21360;SDS011;10839;43.206;23.550;2023-05-07T03:25:29;10.57;;;7.60;;
21360;SDS011;10839;43.206;23.550;2023-05-07T03:27:57;11.48;;;7.78;;
21360;SDS011;10839;43.206;23.550;2023-05-07T03:30:30;11.75;;;8.10;;
21360;SDS011;10839;43.206;23.550;2023-05-07T03:32:56;11.70;;;7.43;;
21360;SDS011;10839;43.206;23.550;2023-05-07T03:35:22;11.60;;;7.07;;
21360;SDS011;10839;43.206;23.550;2023-05-07T03:37:48;8.75;;;6.63;;
21360;SDS011;10839;43.206;23.550;2023-05-07T03:40:15;10.18;;;6.55;;
21360;SDS011;10839;43.206;23.550;2023-05-07T03:42:46;13.63;;;6.65;;
21360;SDS011;10839;43.206;23.550;2023-05-07T03:45:13;9.50;;;6.80;;
21360;SDS011;10839;43.206;23.550;2023-05-07T03:47:44;11.70;;;6.72;;
21360;SDS011;10839;43.206;23.550;2023-05-07T03:50:14;9.82;;;6.00;;
21360;SDS011;10839;43.206;23.550;2023-05-07T03:52:40;7.80;;;5.95;;
21360;SDS011;10839;43.206;23.550;2023-05-07T03:55:08;10.98;;;5.70;;
21360;SDS011;10839;43.206;23.550;2023-05-07T03:57:38;6.28;;;5.13;;
21360;SDS011;10839;43.206;23.550;2023-05-07T04:00:04;8.32;;;5.88;;
21360;SDS011;10839;43.206;23.550;2023-05-07T04:02:45;12.80;;;5.30;;
21360;SDS011;10839;43.206;23.550;2023-05-07T04:05:13;8.05;;;4.90;;
21360;SDS011;10839;43.206;23.550;2023-05-07T04:07:42;6.32;;;4.78;;
21360;SDS011;10839;43.206;23.550;2023-05-07T04:10:09;6.60;;;4.35;;
21360;SDS011;10839;43.206;23.550;2023-05-07T04:12:37;4.95;;;4.03;;
21360;SDS011;10839;43.206;23.550;2023-05-07T04:15:06;8.90;;;4.53;;
21360;SDS011;10839;43.206;23.550;2023-05-07T04:17:32;8.23;;;4.65;;
21360;SDS011;10839;43.206;23.550;2023-05-07T04:19:59;5.32;;;3.90;;
21360;SDS011;10839;43.206;23.550;2023-05-07T04:22:27;6.75;;;4.70;;
21360;SDS011;10839;43.206;23.550;2023-05-07T04:24:54;6.75;;;4.60;;
21360;SDS011;10839;43.206;23.550;2023-05-07T04:27:20;5.63;;;4.30;;
21360;SDS011;10839;43.206;23.550;2023-05-07T04:29:47;6.15;;;4.18;;
21360;SDS011;10839;43.206;23.550;2023-05-07T04:32:14;6.10;;;4.50;;
21360;SDS011;10839;43.206;23.550;2023-05-07T04:34:41;5.05;;;3.97;;
21360;SDS011;10839;43.206;23.550;2023-05-07T04:37:07;6.72;;;3.95;;
21360;SDS011;10839;43.206;23.550;2023-05-07T04:39:33;5.63;;;4.22;;
21360;SDS011;10839;43.206;23.550;2023-05-07T04:42:02;5.68;;;3.88;;
21360;SDS011;10839;43.206;23.550;2023-05-07T04:44:29;6.85;;;3.83;;
21360;SDS011;10839;43.206;23.550;2023-05-07T04:46:56;4.30;;;3.85;;
21360;SDS011;10839;43.206;23.550;2023-05-07T04:49:23;5.93;;;3.80;;
21360;SDS011;10839;43.206;23.550;2023-05-07T04:51:53;5.35;;;3.75;;
21360;SDS011;10839;43.206;23.550;2023-05-07T04:54:21;6.07;;;3.60;;
21360;SDS011;10839;43.206;23.550;2023-05-07T04:56:47;5.97;;;3.90;;
21360;SDS011;10839;43.206;23.550;2023-05-07T04:59:13;7.38;;;3.50;;
21360;SDS011;10839;43.206;23.550;2023-05-07T05:01:39;5.63;;;3.67;;
21360;SDS011;10839;43.206;23.550;2023-05-07T05:04:06;8.93;;;3.42;;
21360;SDS011;10839;43.206;23.550;2023-05-07T05:06:32;6.38;;;3.45;;
21360;SDS011;10839;43.206;23.550;2023-05-07T05:08:59;6.57;;;3.33;;
21360;SDS011;10839;43.206;23.550;2023-05-07T05:11:27;4.40;;;3.03;;
21360;SDS011;10839;43.206;23.550;2023-05-07T05:13:53;5.18;;;3.00;;
21360;SDS011;10839;43.206;23.550;2023-05-07T05:16:20;5.10;;;3.20;;
21360;SDS011;10839;43.206;23.550;2023-05-07T05:18:47;3.75;;;3.20;;
21360;SDS011;10839;43.206;23.550;2023-05-07T05:21:16;6.03;;;3.33;;
21360;SDS011;10839;43.206;23.550;2023-05-07T05:23:45;4.03;;;2.95;;
21360;SDS011;10839;43.206;23.550;2023-05-07T05:26:12;3.92;;;3.35;;
21360;SDS011;10839;43.206;23.550;2023-05-07T05:28:38;4.72;;;3.17;;
21360;SDS011;10839;43.206;23.550;2023-05-07T05:31:04;4.28;;;3.00;;
21360;SDS011;10839;43.206;23.550;2023-05-07T05:33:34;3.92;;;2.95;;
21360;SDS011;10839;43.206;23.550;2023-05-07T05:36:03;7.13;;;2.85;;
21360;SDS011;10839;43.206;23.550;2023-05-07T05:38:29;4.38;;;2.83;;
21360;SDS011;10839;43.206;23.550;2023-05-07T05:40:56;4.30;;;3.00;;
21360;SDS011;10839;43.206;23.550;2023-05-07T05:43:22;4.18;;;2.72;;
21360;SDS011;10839;43.206;23.550;2023-05-07T05:45:48;5.40;;;2.83;;
21360;SDS011;10839;43.206;23.550;2023-05-07T05:48:14;3.75;;;2.97;;
21360;SDS011;10839;43.206;23.550;2023-05-07T05:50:41;5.00;;;2.63;;
21360;SDS011;10839;43.206;23.550;2023-05-07T05:53:08;7.18;;;3.20;;
21360;SDS011;10839;43.206;23.550;2023-05-07T05:55:34;5.85;;;3.25;;
21360;SDS011;10839;43.206;23.550;2023-05-07T05:58:00;7.72;;;3.20;;
21360;SDS011;10839;43.206;23.550;2023-05-07T06:00:28;5.20;;;2.75;;
21360;SDS011;10839;43.206;23.550;2023-05-07T06:03:00;7.90;;;3.30;;
21360;SDS011;10839;43.206;23.550;2023-05-07T06:05:27;6.07;;;2.83;;
21360;SDS011;10839;43.206;23.550;2023-05-07T06:07:55;4.80;;;3.70;;
21360;SDS011;10839;43.206;23.550;2023-05-07T06:10:21;6.30;;;3.40;;
21360;SDS011;10839;43.206;23.550;2023-05-07T06:12:47;7.00;;;3.78;;
21360;SDS011;10839;43.206;23.550;2023-05-07T06:15:15;9.48;;;3.38;;
21360;SDS011;10839;43.206;23.550;2023-05-07T06:17:41;4.88;;;3.10;;
21360;SDS011;10839;43.206;23.550;2023-05-07T06:20:09;8.93;;;3.63;;
21360;SDS011;10839;43.206;23.550;2023-05-07T06:22:35;9.48;;;6.13;;
21360;SDS011;10839;43.206;23.550;2023-05-07T06:25:02;8.70;;;5.72;;
21360;SDS011;10839;43.206;23.550;2023-05-07T06:27:28;5.25;;;3.72;;
21360;SDS011;10839;43.206;23.550;2023-05-07T06:29:55;4.90;;;3.58;;
21360;SDS011;10839;43.206;23.550;2023-05-07T06:32:21;7.35;;;3.30;;
21360;SDS011;10839;43.206;23.550;2023-05-07T06:34:48;8.63;;;3.22;;
21360;SDS011;10839;43.206;23.550;2023-05-07T06:37:14;4.95;;;3.17;;
21360;SDS011;10839;43.206;23.550;2023-05-07T06:39:54;6.50;;;3.25;;
21360;SDS011;10839;43.206;23.550;2023-05-07T06:42:19;6.95;;;3.30;;
21360;SDS011;10839;43.206;23.550;2023-05-07T06:44:47;15.60;;;3.95;;
21360;SDS011;10839;43.206;23.550;2023-05-07T06:47:16;5.47;;;3.40;;
21360;SDS011;10839;43.206;23.550;2023-05-07T06:49:44;4.40;;;3.05;;
21360;SDS011;10839;43.206;23.550;2023-05-07T06:52:13;4.53;;;3.33;;
21360;SDS011;10839;43.206;23.550;2023-05-07T06:54:40;6.47;;;3.45;;
21360;SDS011;10839;43.206;23.550;2023-05-07T06:57:06;5.75;;;3.70;;
21360;SDS011;10839;43.206;23.550;2023-05-07T06:59:32;24.45;;;16.30;;
21360;SDS011;10839;43.206;23.550;2023-05-07T07:01:58;20.25;;;14.70;;
21360;SDS011;10839;43.206;23.550;2023-05-07T07:04:24;17.20;;;11.65;;
21360;SDS011;10839;43.206;23.550;2023-05-07T07:06:58;17.63;;;12.63;;
21360;SDS011;10839;43.206;23.550;2023-05-07T07:09:24;14.90;;;9.40;;
21360;SDS011;10839;43.206;23.550;2023-05-07T07:11:52;5.85;;;4.55;;
21360;SDS011;10839;43.206;23.550;2023-05-07T07:14:18;10.95;;;8.95;;
21360;SDS011;10839;43.206;23.550;2023-05-07T07:16:48;9.55;;;6.47;;
21360;SDS011;10839;43.206;23.550;2023-05-07T07:19:16;12.25;;;6.90;;
21360;SDS011;10839;43.206;23.550;2023-05-07T07:21:42;10.48;;;5.50;;
21360;SDS011;10839;43.206;23.550;2023-05-07T07:24:10;6.68;;;5.03;;
21360;SDS011;10839;43.206;23.550;2023-05-07T07:26:36;5.78;;;4.15;;
21360;SDS011;10839;43.206;23.550;2023-05-07T07:29:02;8.10;;;4.28;;
21360;SDS011;10839;43.206;23.550;2023-05-07T07:31:28;6.45;;;3.97;;
21360;SDS011;10839;43.206;23.550;2023-05-07T07:33:54;6.85;;;3.75;;
21360;SDS011;10839;43.206;23.550;2023-05-07T07:36:20;9.10;;;3.60;;
21360;SDS011;10839;43.206;23.550;2023-05-07T07:38:46;8.07;;;3.45;;
21360;SDS011;10839;43.206;23.550;2023-05-07T07:41:12;6.57;;;3.47;;
21360;SDS011;10839;43.206;23.550;2023-05-07T07:43:38;4.10;;;3.70;;
21360;SDS011;10839;43.206;23.550;2023-05-07T07:46:04;6.40;;;3.40;;
21360;SDS011;10839;43.206;23.550;2023-05-07T07:48:32;6.65;;;4.57;;
21360;SDS011;10839;43.206;23.550;2023-05-07T07:50:58;6.70;;;3.67;;
21360;SDS011;10839;43.206;23.550;2023-05-07T07:53:25;7.38;;;3.60;;
21360;SDS011;10839;43.206;23.550;2023-05-07T07:55:51;5.70;;;3.88;;
21360;SDS011;10839;43.206;23.550;2023-05-07T07:58:20;6.10;;;3.45;;
21360;SDS011;10839;43.206;23.550;2023-05-07T08:00:47;5.53;;;3.13;;
21360;SDS011;10839;43.206;23.550;2023-05-07T08:03:14;10.02;;;4.00;;
21360;SDS011;10839;43.206;23.550;2023-05-07T08:05:45;5.10;;;3.22;;
21360;SDS011;10839;43.206;23.550;2023-05-07T08:08:11;4.35;;;3.42;;
21360;SDS011;10839;43.206;23.550;2023-05-07T08:10:39;3.55;;;3.25;;
21360;SDS011;10839;43.206;23.550;2023-05-07T08:13:13;6.45;;;4.00;;
21360;SDS011;10839;43.206;23.550;2023-05-07T08:15:40;4.60;;;3.50;;
21360;SDS011;10839;43.206;23.550;2023-05-07T08:18:06;3.20;;;2.90;;
21360;SDS011;10839;43.206;23.550;2023-05-07T08:20:33;5.10;;;3.45;;
21360;SDS011;10839;43.206;23.550;2023-05-07T08:23:05;5.70;;;3.08;;
21360;SDS011;10839;43.206;23.550;2023-05-07T08:25:33;4.32;;;3.10;;
21360;SDS011;10839;43.206;23.550;2023-05-07T08:28:01;4.65;;;2.60;;
21360;SDS011;10839;43.206;23.550;2023-05-07T08:30:29;4.40;;;3.97;;
21360;SDS011;10839;43.206;23.550;2023-05-07T08:32:55;3.47;;;2.97;;
21360;SDS011;10839;43.206;23.550;2023-05-07T08:35:21;4.18;;;2.72;;
21360;SDS011;10839;43.206;23.550;2023-05-07T08:37:47;3.65;;;2.67;;
21360;SDS011;10839;43.206;23.550;2023-05-07T08:40:14;3.28;;;2.80;;
21360;SDS011;10839;43.206;23.550;2023-05-07T08:42:41;5.22;;;2.80;;
21360;SDS011;10839;43.206;23.550;2023-05-07T08:45:10;6.13;;;2.60;;
21360;SDS011;10839;43.206;23.550;2023-05-07T08:47:50;8.02;;;2.75;;
21360;SDS011;10839;43.206;23.550;2023-05-07T08:50:20;4.95;;;2.95;;
21360;SDS011;10839;43.206;23.550;2023-05-07T08:52:47;3.97;;;2.95;;
21360;SDS011;10839;43.206;23.550;2023-05-07T08:55:15;3.72;;;2.95;;
21360;SDS011;10839;43.206;23.550;2023-05-07T08:57:42;5.03;;;3.20;;
21360;SDS011;10839;43.206;23.550;2023-05-07T09:00:10;4.53;;;3.28;;
21360;SDS011;10839;43.206;23.550;2023-05-07T09:02:37;4.28;;;3.00;;
21360;SDS011;10839;43.206;23.550;2023-05-07T09:05:05;6.75;;;2.95;;
21360;SDS011;10839;43.206;23.550;2023-05-07T09:07:32;4.43;;;3.03;;
21360;SDS011;10839;43.206;23.550;2023-05-07T09:10:00;6.95;;;3.50;;
21360;SDS011;10839;43.206;23.550;2023-05-07T09:12:29;4.47;;;2.90;;
21360;SDS011;10839;43.206;23.550;2023-05-07T09:14:56;4.45;;;3.20;;
21360;SDS011;10839;43.206;23.550;2023-05-07T09:17:22;3.80;;;3.25;;
21360;SDS011;10839;43.206;23.550;2023-05-07T09:19:48;4.65;;;2.80;;
21360;SDS011;10839;43.206;23.550;2023-05-07T09:22:15;5.95;;;3.15;;
21360;SDS011;10839;43.206;23.550;2023-05-07T09:24:55;4.97;;;2.55;;
21360;SDS011;10839;43.206;23.550;2023-05-07T09:27:25;5.88;;;3.83;;
21360;SDS011;10839;43.206;23.550;2023-05-07T09:29:53;6.30;;;3.25;;
21360;SDS011;10839;43.206;23.550;2023-05-07T09:32:18;5.00;;;3.22;;
21360;SDS011;10839;43.206;23.550;2023-05-07T09:34:45;4.68;;;3.00;;
21360;SDS011;10839;43.206;23.550;2023-05-07T09:37:13;5.15;;;3.30;;
21360;SDS011;10839;43.206;23.550;2023-05-07T09:39:45;2.95;;;2.65;;
21360;SDS011;10839;43.206;23.550;2023-05-07T09:42:14;5.72;;;2.97;;
21360;SDS011;10839;43.206;23.550;2023-05-07T09:44:41;5.55;;;2.88;;
21360;SDS011;10839;43.206;23.550;2023-05-07T09:47:12;5.20;;;2.88;;
21360;SDS011;10839;43.206;23.550;2023-05-07T09:49:48;3.58;;;2.97;;
21360;SDS011;10839;43.206;23.550;2023-05-07T09:52:19;8.55;;;3.00;;
21360;SDS011;10839;43.206;23.550;2023-05-07T09:54:49;4.85;;;2.97;;
21360;SDS011;10839;43.206;23.550;2023-05-07T09:57:18;6.43;;;3.50;;
21360;SDS011;10839;43.206;23.550;2023-05-07T09:59:49;4.07;;;2.85;;
21360;SDS011;10839;43.206;23.550;2023-05-07T10:02:19;15.48;;;10.00;;
21360;SDS011;10839;43.206;23.550;2023-05-07T10:04:50;8.93;;;3.35;;
21360;SDS011;10839;43.206;23.550;2023-05-07T10:07:22;7.60;;;4.60;;
21360;SDS011;10839;43.206;23.550;2023-05-07T10:09:55;3.47;;;3.15;;
21360;SDS011;10839;43.206;23.550;2023-05-07T10:12:30;4.07;;;3.03;;
21360;SDS011;10839;43.206;23.550;2023-05-07T10:17:35;5.78;;;3.22;;
21360;SDS011;10839;43.206;23.550;2023-05-07T10:20:02;7.22;;;3.05;;
21360;SDS011;10839;43.206;23.550;2023-05-07T10:22:33;4.35;;;3.28;;
21360;SDS011;10839;43.206;23.550;2023-05-07T10:25:15;5.93;;;3.10;;
21360;SDS011;10839;43.206;23.550;2023-05-07T10:27:45;3.53;;;3.15;;
21360;SDS011;10839;43.206;23.550;2023-05-07T10:33:03;3.83;;;2.70;;
21360;SDS011;10839;43.206;23.550;2023-05-07T10:35:38;4.40;;;3.10;;
21360;SDS011;10839;43.206;23.550;2023-05-07T10:38:10;4.70;;;2.72;;
21360;SDS011;10839;43.206;23.550;2023-05-07T10:40:39;3.20;;;2.22;;
21360;SDS011;10839;43.206;23.550;2023-05-07T10:43:07;3.30;;;2.78;;
21360;SDS011;10839;43.206;23.550;2023-05-07T10:51:28;2.28;;;2.08;;
21360;SDS011;10839;43.206;23.550;2023-05-07T10:54:19;4.00;;;2.45;;
21360;SDS011;10839;43.206;23.550;2023-05-07T10:56:58;4.88;;;2.45;;
21360;SDS011;10839;43.206;23.550;2023-05-07T11:03:04;5.55;;;2.53;;
21360;SDS011;10839;43.206;23.550;2023-05-07T11:05:47;4.38;;;2.60;;
21360;SDS011;10839;43.206;23.550;2023-05-07T11:08:22;3.35;;;2.63;;
21360;SDS011;10839;43.206;23.550;2023-05-07T11:10:55;4.13;;;2.53;;
21360;SDS011;10839;43.206;23.550;2023-05-07T11:13:45;4.22;;;2.28;;
21360;SDS011;10839;43.206;23.550;2023-05-07T11:16:24;3.75;;;2.38;;
21360;SDS011;10839;43.206;23.550;2023-05-07T11:19:08;4.75;;;2.50;;
21360;SDS011;10839;43.206;23.550;2023-05-07T11:21:41;4.32;;;2.45;;
21360;SDS011;10839;43.206;23.550;2023-05-07T11:24:38;2.95;;;2.47;;
21360;SDS011;10839;43.206;23.550;2023-05-07T11:27:06;2.58;;;2.22;;
21360;SDS011;10839;43.206;23.550;2023-05-07T11:29:32;3.47;;;2.30;;
21360;SDS011;10839;43.206;23.550;2023-05-07T11:32:05;3.63;;;2.10;;
21360;SDS011;10839;43.206;23.550;2023-05-07T11:34:38;3.05;;;2.03;;
21360;SDS011;10839;43.206;23.550;2023-05-07T11:37:04;2.10;;;1.90;;
21360;SDS011;10839;43.206;23.550;2023-05-07T11:39:50;3.38;;;1.98;;
21360;SDS011;10839;43.206;23.550;2023-05-07T11:42:30;4.00;;;2.33;;
21360;SDS011;10839;43.206;23.550;2023-05-07T11:44:57;2.35;;;2.10;;
21360;SDS011;10839;43.206;23.550;2023-05-07T11:47:23;11.25;;;2.38;;
21360;SDS011;10839;43.206;23.550;2023-05-07T11:49:51;4.07;;;2.17;;
21360;SDS011;10839;43.206;23.550;2023-05-07T11:52:19;3.33;;;2.25;;
21360;SDS011;10839;43.206;23.550;2023-05-07T11:54:54;3.38;;;2.45;;
21360;SDS011;10839;43.206;23.550;2023-05-07T11:57:21;6.07;;;2.40;;
21360;SDS011;10839;43.206;23.550;2023-05-07T11:59:48;6.88;;;2.60;;
21360;SDS011;10839;43.206;23.550;2023-05-07T12:02:21;5.00;;;2.78;;
21360;SDS011;10839;43.206;23.550;2023-05-07T12:04:47;5.45;;;2.17;;
21360;SDS011;10839;43.206;23.550;2023-05-07T12:07:14;4.03;;;2.40;;
21360;SDS011;10839;43.206;23.550;2023-05-07T12:09:41;4.88;;;2.40;;
21360;SDS011;10839;43.206;23.550;2023-05-07T12:12:07;5.97;;;3.28;;
21360;SDS011;10839;43.206;23.550;2023-05-07T12:14:37;2.92;;;2.15;;
21360;SDS011;10839;43.206;23.550;2023-05-07T12:17:09;3.83;;;2.13;;
21360;SDS011;10839;43.206;23.550;2023-05-07T12:19:36;5.88;;;2.08;;
21360;SDS011;10839;43.206;23.550;2023-05-07T12:22:07;5.40;;;2.67;;
21360;SDS011;10839;43.206;23.550;2023-05-07T12:24:43;2.55;;;2.20;;
21360;SDS011;10839;43.206;23.550;2023-05-07T12:27:13;3.25;;;2.20;;
21360;SDS011;10839;43.206;23.550;2023-05-07T12:29:43;4.30;;;2.20;;
21360;SDS011;10839;43.206;23.550;2023-05-07T12:32:13;2.50;;;2.25;;
21360;SDS011;10839;43.206;23.550;2023-05-07T12:34:40;2.53;;;2.20;;
21360;SDS011;10839;43.206;23.550;2023-05-07T12:37:06;3.60;;;2.30;;
21360;SDS011;10839;43.206;23.550;2023-05-07T12:39:32;4.63;;;2.40;;
21360;SDS011;10839;43.206;23.550;2023-05-07T12:41:59;4.95;;;2.40;;
21360;SDS011;10839;43.206;23.550;2023-05-07T12:44:26;4.20;;;2.20;;
21360;SDS011;10839;43.206;23.550;2023-05-07T12:46:55;8.50;;;4.65;;
21360;SDS011;10839;43.206;23.550;2023-05-07T12:49:22;2.72;;;2.42;;
21360;SDS011;10839;43.206;23.550;2023-05-07T12:51:48;6.03;;;2.75;;
21360;SDS011;10839;43.206;23.550;2023-05-07T12:54:30;5.75;;;2.33;;
21360;SDS011;10839;43.206;23.550;2023-05-07T12:57:04;2.25;;;2.05;;
21360;SDS011;10839;43.206;23.550;2023-05-07T12:59:32;5.13;;;2.63;;
21360;SDS011;10839;43.206;23.550;2023-05-07T13:01:58;5.40;;;2.20;;
21360;SDS011;10839;43.206;23.550;2023-05-07T13:04:24;3.97;;;2.60;;
21360;SDS011;10839;43.206;23.550;2023-05-07T13:06:51;3.83;;;1.77;;
21360;SDS011;10839;43.206;23.550;2023-05-07T13:09:17;2.70;;;2.30;;
21360;SDS011;10839;43.206;23.550;2023-05-07T13:11:43;3.28;;;2.30;;
21360;SDS011;10839;43.206;23.550;2023-05-07T13:14:08;3.28;;;2.30;;
21360;SDS011;10839;43.206;23.550;2023-05-07T13:16:34;4.93;;;2.35;;
21360;SDS011;10839;43.206;23.550;2023-05-07T13:19:00;2.90;;;2.30;;
21360;SDS011;10839;43.206;23.550;2023-05-07T13:21:26;2.90;;;2.10;;
21360;SDS011;10839;43.206;23.550;2023-05-07T13:23:52;5.68;;;2.30;;
21360;SDS011;10839;43.206;23.550;2023-05-07T13:26:18;2.95;;;2.30;;
21360;SDS011;10839;43.206;23.550;2023-05-07T13:28:44;4.72;;;2.33;;
21360;SDS011;10839;43.206;23.550;2023-05-07T13:31:09;3.30;;;2.15;;
21360;SDS011;10839;43.206;23.550;2023-05-07T13:33:35;4.95;;;2.58;;
21360;SDS011;10839;43.206;23.550;2023-05-07T13:36:01;3.67;;;2.20;;
21360;SDS011;10839;43.206;23.550;2023-05-07T13:38:30;3.38;;;2.50;;
21360;SDS011;10839;43.206;23.550;2023-05-07T13:40:56;4.75;;;2.22;;
21360;SDS011;10839;43.206;23.550;2023-05-07T13:43:22;3.00;;;2.45;;
21360;SDS011;10839;43.206;23.550;2023-05-07T13:45:47;4.35;;;2.65;;
21360;SDS011;10839;43.206;23.550;2023-05-07T13:48:13;6.60;;;4.47;;
21360;SDS011;10839;43.206;23.550;2023-05-07T13:50:39;18.05;;;11.88;;
21360;SDS011;10839;43.206;23.550;2023-05-07T13:53:05;11.43;;;7.57;;
21360;SDS011;10839;43.206;23.550;2023-05-07T13:55:30;3.65;;;2.80;;
21360;SDS011;10839;43.206;23.550;2023-05-07T13:57:57;4.78;;;3.10;;
21360;SDS011;10839;43.206;23.550;2023-05-07T14:00:25;4.13;;;2.25;;
21360;SDS011;10839;43.206;23.550;2023-05-07T14:02:52;7.00;;;2.83;;
21360;SDS011;10839;43.206;23.550;2023-05-07T14:05:18;3.58;;;2.38;;
21360;SDS011;10839;43.206;23.550;2023-05-07T14:07:45;6.20;;;2.88;;
21360;SDS011;10839;43.206;23.550;2023-05-07T14:10:12;25.25;;;15.35;;
21360;SDS011;10839;43.206;23.550;2023-05-07T14:12:38;7.78;;;4.47;;
21360;SDS011;10839;43.206;23.550;2023-05-07T14:15:04;8.68;;;4.72;;
21360;SDS011;10839;43.206;23.550;2023-05-07T14:17:30;6.18;;;3.70;;
21360;SDS011;10839;43.206;23.550;2023-05-07T14:19:56;2.75;;;2.25;;
21360;SDS011;10839;43.206;23.550;2023-05-07T14:22:22;11.30;;;4.80;;
21360;SDS011;10839;43.206;23.550;2023-05-07T14:24:49;4.75;;;2.90;;
21360;SDS011;10839;43.206;23.550;2023-05-07T14:27:15;8.10;;;3.03;;
21360;SDS011;10839;43.206;23.550;2023-05-07T14:29:41;3.95;;;2.47;;
21360;SDS011;10839;43.206;23.550;2023-05-07T14:32:08;2.95;;;2.50;;
21360;SDS011;10839;43.206;23.550;2023-05-07T14:34:34;5.40;;;2.40;;
21360;SDS011;10839;43.206;23.550;2023-05-07T14:37:00;4.10;;;2.72;;
21360;SDS011;10839;43.206;23.550;2023-05-07T14:39:27;4.93;;;2.60;;
21360;SDS011;10839;43.206;23.550;2023-05-07T14:41:52;5.18;;;2.28;;
21360;SDS011;10839;43.206;23.550;2023-05-07T14:44:20;6.25;;;3.25;;
21360;SDS011;10839;43.206;23.550;2023-05-07T14:46:46;5.18;;;2.90;;
21360;SDS011;10839;43.206;23.550;2023-05-07T14:49:13;4.07;;;2.10;;
21360;SDS011;10839;43.206;23.550;2023-05-07T14:51:43;4.80;;;2.63;;